sensor_id;sensor_type;location;lat;lon;timestamp;P1;durP1;ratioP1;P2;durP2;ratioP2
19621;SDS011;9958;33.196;-97.114;2023-05-24T00:00:35;16.60;;;10.90;;
19621;SDS011;9958;33.196;-97.114;2023-05-24T00:03:03;13.90;;;10.90;;
19621;SDS011;9958;33.196;-97.114;2023-05-24T00:05:31;15.32;;;10.95;;
19621;SDS011;9958;33.196;-97.114;2023-05-24T00:08:03;13.65;;;10.27;;
19621;SDS011;9958;33.196;-97.114;2023-05-24T00:10:32;17.65;;;10.25;;
19621;SDS011;9958;33.196;-97.114;2023-05-24T00:13:00;13.07;;;10.48;;
19621;SDS011;9958;33.196;-97.114;2023-05-24T00:15:28;18.75;;;11.18;;
19621;SDS011;9958;33.196;-97.114;2023-05-24T00:17:56;14.50;;;10.55;;
19621;SDS011;9958;33.196;-97.114;2023-05-24T00:20:25;15.38;;;10.68;;
19621;SDS011;9958;33.196;-97.114;2023-05-24T00:22:53;22.80;;;11.43;;
19621;SDS011;9958;33.196;-97.114;2023-05-24T00:25:23;17.08;;;10.70;;
19621;SDS011;9958;33.196;-97.114;2023-05-24T00:27:51;20.45;;;12.23;;
19621;SDS011;9958;33.196;-97.114;2023-05-24T00:30:19;16.90;;;12.00;;
19621;SDS011;9958;33.196;-97.114;2023-05-24T00:32:48;14.75;;;10.25;;
19621;SDS011;9958;33.196;-97.114;2023-05-24T00:35:16;17.67;;;11.43;;
19621;SDS011;9958;33.196;-97.114;2023-05-24T00:37:44;14.43;;;10.68;;
19621;SDS011;9958;33.196;-97.114;2023-05-24T00:40:12;15.52;;;10.20;;
19621;SDS011;9958;33.196;-97.114;2023-05-24T00:42:42;14.38;;;10.32;;
19621;SDS011;9958;33.196;-97.114;2023-05-24T00:45:11;14.48;;;10.65;;
19621;SDS011;9958;33.196;-97.114;2023-05-24T00:47:39;14.02;;;10.80;;
19621;SDS011;9958;33.196;-97.114;2023-05-24T00:50:08;17.80;;;10.98;;
19621;SDS011;9958;33.196;-97.114;2023-05-24T00:52:38;15.55;;;10.75;;
19621;SDS011;9958;33.196;-97.114;2023-05-24T00:55:08;16.17;;;11.27;;
19621;SDS011;9958;33.196;-97.114;2023-05-24T00:57:36;17.83;;;10.70;;
19621;SDS011;9958;33.196;-97.114;2023-05-24T01:00:07;15.80;;;10.48;;
19621;SDS011;9958;33.196;-97.114;2023-05-24T01:02:37;17.38;;;10.70;;
19621;SDS011;9958;33.196;-97.114;2023-05-24T01:05:05;16.27;;;11.43;;
19621;SDS011;9958;33.196;-97.114;2023-05-24T01:07:39;17.85;;;12.20;;
19621;SDS011;9958;33.196;-97.114;2023-05-24T01:10:19;17.35;;;11.55;;
19621;SDS011;9958;33.196;-97.114;2023-05-24T01:12:54;20.38;;;11.90;;
19621;SDS011;9958;33.196;-97.114;2023-05-24T01:15:30;21.50;;;11.80;;
19621;SDS011;9958;33.196;-97.114;2023-05-24T01:18:10;23.02;;;11.05;;
19621;SDS011;9958;33.196;-97.114;2023-05-24T01:20:43;15.95;;;10.75;;
19621;SDS011;9958;33.196;-97.114;2023-05-24T01:23:17;17.30;;;11.38;;
19621;SDS011;9958;33.196;-97.114;2023-05-24T01:26:02;15.68;;;11.63;;
19621;SDS011;9958;33.196;-97.114;2023-05-24T01:28:47;17.58;;;11.55;;
19621;SDS011;9958;33.196;-97.114;2023-05-24T01:31:16;17.98;;;11.27;;
19621;SDS011;9958;33.196;-97.114;2023-05-24T01:33:46;16.45;;;11.13;;
19621;SDS011;9958;33.196;-97.114;2023-05-24T01:36:14;17.05;;;12.13;;
19621;SDS011;9958;33.196;-97.114;2023-05-24T01:38:42;18.08;;;11.30;;
19621;SDS011;9958;33.196;-97.114;2023-05-24T01:41:14;17.65;;;11.25;;
19621;SDS011;9958;33.196;-97.114;2023-05-24T01:43:55;17.17;;;10.88;;
19621;SDS011;9958;33.196;-97.114;2023-05-24T01:46:31;20.70;;;12.70;;
19621;SDS011;9958;33.196;-97.114;2023-05-24T01:49:08;26.70;;;11.98;;
19621;SDS011;9958;33.196;-97.114;2023-05-24T01:51:47;16.27;;;11.30;;
19621;SDS011;9958;33.196;-97.114;2023-05-24T01:54:20;18.23;;;11.75;;
19621;SDS011;9958;33.196;-97.114;2023-05-24T01:56:52;18.40;;;12.30;;
19621;SDS011;9958;33.196;-97.114;2023-05-24T01:59:23;15.70;;;11.02;;
19621;SDS011;9958;33.196;-97.114;2023-05-24T02:01:54;16.73;;;11.55;;
19621;SDS011;9958;33.196;-97.114;2023-05-24T02:04:24;19.27;;;12.43;;
19621;SDS011;9958;33.196;-97.114;2023-05-24T02:06:52;17.98;;;12.25;;
19621;SDS011;9958;33.196;-97.114;2023-05-24T02:09:20;17.05;;;12.27;;
19621;SDS011;9958;33.196;-97.114;2023-05-24T02:11:48;33.78;;;12.68;;
19621;SDS011;9958;33.196;-97.114;2023-05-24T02:14:17;19.42;;;12.45;;
19621;SDS011;9958;33.196;-97.114;2023-05-24T02:16:47;14.57;;;11.30;;
19621;SDS011;9958;33.196;-97.114;2023-05-24T02:19:15;18.05;;;11.38;;
19621;SDS011;9958;33.196;-97.114;2023-05-24T02:21:43;14.82;;;10.70;;
19621;SDS011;9958;33.196;-97.114;2023-05-24T02:24:12;17.10;;;11.85;;
19621;SDS011;9958;33.196;-97.114;2023-05-24T02:26:41;21.73;;;11.13;;
19621;SDS011;9958;33.196;-97.114;2023-05-24T02:29:09;18.35;;;11.90;;
19621;SDS011;9958;33.196;-97.114;2023-05-24T02:31:37;16.23;;;11.05;;
19621;SDS011;9958;33.196;-97.114;2023-05-24T02:34:07;17.42;;;11.02;;
19621;SDS011;9958;33.196;-97.114;2023-05-24T02:36:35;34.80;;;12.77;;
19621;SDS011;9958;33.196;-97.114;2023-05-24T02:39:04;18.83;;;11.23;;
19621;SDS011;9958;33.196;-97.114;2023-05-24T02:41:32;17.58;;;11.23;;
19621;SDS011;9958;33.196;-97.114;2023-05-24T02:44:00;18.00;;;11.57;;
19621;SDS011;9958;33.196;-97.114;2023-05-24T02:46:29;16.13;;;11.40;;
19621;SDS011;9958;33.196;-97.114;2023-05-24T02:48:57;15.35;;;11.35;;
19621;SDS011;9958;33.196;-97.114;2023-05-24T02:51:27;16.25;;;11.90;;
19621;SDS011;9958;33.196;-97.114;2023-05-24T02:53:57;17.75;;;10.95;;
19621;SDS011;9958;33.196;-97.114;2023-05-24T02:56:25;18.17;;;10.95;;
19621;SDS011;9958;33.196;-97.114;2023-05-24T02:58:53;14.70;;;10.48;;
19621;SDS011;9958;33.196;-97.114;2023-05-24T03:01:22;16.65;;;11.95;;
19621;SDS011;9958;33.196;-97.114;2023-05-24T03:03:50;19.13;;;10.85;;
19621;SDS011;9958;33.196;-97.114;2023-05-24T03:06:18;15.77;;;11.88;;
19621;SDS011;9958;33.196;-97.114;2023-05-24T03:08:48;18.45;;;11.57;;
19621;SDS011;9958;33.196;-97.114;2023-05-24T03:11:16;15.48;;;11.15;;
19621;SDS011;9958;33.196;-97.114;2023-05-24T03:13:46;18.25;;;12.35;;
19621;SDS011;9958;33.196;-97.114;2023-05-24T03:16:14;16.73;;;11.55;;
19621;SDS011;9958;33.196;-97.114;2023-05-24T03:18:44;14.85;;;11.77;;
19621;SDS011;9958;33.196;-97.114;2023-05-24T03:21:15;20.83;;;12.18;;
19621;SDS011;9958;33.196;-97.114;2023-05-24T03:23:45;17.85;;;11.55;;
19621;SDS011;9958;33.196;-97.114;2023-05-24T03:26:14;17.77;;;11.88;;
19621;SDS011;9958;33.196;-97.114;2023-05-24T03:28:43;19.58;;;12.93;;
19621;SDS011;9958;33.196;-97.114;2023-05-24T03:31:12;20.23;;;11.57;;
19621;SDS011;9958;33.196;-97.114;2023-05-24T03:33:41;17.67;;;12.25;;
19621;SDS011;9958;33.196;-97.114;2023-05-24T03:36:09;19.13;;;12.05;;
19621;SDS011;9958;33.196;-97.114;2023-05-24T03:38:37;17.98;;;12.40;;
19621;SDS011;9958;33.196;-97.114;2023-05-24T03:41:05;18.95;;;12.80;;
19621;SDS011;9958;33.196;-97.114;2023-05-24T03:43:35;16.75;;;12.00;;
19621;SDS011;9958;33.196;-97.114;2023-05-24T03:46:04;23.92;;;14.38;;
19621;SDS011;9958;33.196;-97.114;2023-05-24T03:48:32;20.35;;;12.95;;
19621;SDS011;9958;33.196;-97.114;2023-05-24T03:51:00;21.20;;;13.90;;
19621;SDS011;9958;33.196;-97.114;2023-05-24T03:53:29;21.27;;;13.65;;
19621;SDS011;9958;33.196;-97.114;2023-05-24T03:55:57;18.58;;;12.55;;
19621;SDS011;9958;33.196;-97.114;2023-05-24T03:58:26;40.25;;;14.55;;
19621;SDS011;9958;33.196;-97.114;2023-05-24T04:00:56;21.60;;;13.45;;
19621;SDS011;9958;33.196;-97.114;2023-05-24T04:03:24;17.98;;;13.68;;
19621;SDS011;9958;33.196;-97.114;2023-05-24T04:05:52;19.52;;;14.07;;
19621;SDS011;9958;33.196;-97.114;2023-05-24T04:08:21;20.08;;;13.20;;
19621;SDS011;9958;33.196;-97.114;2023-05-24T04:10:49;20.63;;;14.20;;
19621;SDS011;9958;33.196;-97.114;2023-05-24T04:13:17;19.35;;;12.98;;
19621;SDS011;9958;33.196;-97.114;2023-05-24T04:15:45;18.77;;;13.40;;
19621;SDS011;9958;33.196;-97.114;2023-05-24T04:18:15;21.45;;;14.10;;
19621;SDS011;9958;33.196;-97.114;2023-05-24T04:20:44;21.02;;;13.30;;
19621;SDS011;9958;33.196;-97.114;2023-05-24T04:23:12;19.20;;;12.23;;
19621;SDS011;9958;33.196;-97.114;2023-05-24T04:25:41;20.73;;;12.77;;
19621;SDS011;9958;33.196;-97.114;2023-05-24T04:28:09;21.05;;;13.73;;
19621;SDS011;9958;33.196;-97.114;2023-05-24T04:30:38;20.15;;;13.35;;
19621;SDS011;9958;33.196;-97.114;2023-05-24T04:33:06;20.00;;;13.27;;
19621;SDS011;9958;33.196;-97.114;2023-05-24T04:35:36;17.27;;;12.30;;
19621;SDS011;9958;33.196;-97.114;2023-05-24T04:38:05;18.63;;;13.10;;
19621;SDS011;9958;33.196;-97.114;2023-05-24T04:40:33;21.50;;;13.40;;
19621;SDS011;9958;33.196;-97.114;2023-05-24T04:43:01;19.42;;;12.88;;
19621;SDS011;9958;33.196;-97.114;2023-05-24T04:45:31;18.23;;;13.38;;
19621;SDS011;9958;33.196;-97.114;2023-05-24T04:48:00;18.70;;;13.07;;
19621;SDS011;9958;33.196;-97.114;2023-05-24T04:50:28;20.20;;;13.27;;
19621;SDS011;9958;33.196;-97.114;2023-05-24T04:52:58;19.90;;;13.05;;
19621;SDS011;9958;33.196;-97.114;2023-05-24T04:55:26;21.55;;;13.30;;
19621;SDS011;9958;33.196;-97.114;2023-05-24T04:57:54;19.60;;;12.93;;
19621;SDS011;9958;33.196;-97.114;2023-05-24T05:00:23;20.63;;;13.52;;
19621;SDS011;9958;33.196;-97.114;2023-05-24T05:02:51;19.13;;;12.63;;
19621;SDS011;9958;33.196;-97.114;2023-05-24T05:05:19;22.20;;;13.18;;
19621;SDS011;9958;33.196;-97.114;2023-05-24T05:07:48;19.27;;;12.77;;
19621;SDS011;9958;33.196;-97.114;2023-05-24T05:10:17;20.30;;;13.30;;
19621;SDS011;9958;33.196;-97.114;2023-05-24T05:12:46;18.05;;;13.05;;
19621;SDS011;9958;33.196;-97.114;2023-05-24T05:15:14;20.30;;;12.70;;
19621;SDS011;9958;33.196;-97.114;2023-05-24T05:17:43;18.70;;;13.40;;
19621;SDS011;9958;33.196;-97.114;2023-05-24T05:20:11;20.58;;;12.60;;
19621;SDS011;9958;33.196;-97.114;2023-05-24T05:22:41;19.83;;;12.35;;
19621;SDS011;9958;33.196;-97.114;2023-05-24T05:25:12;17.55;;;12.43;;
19621;SDS011;9958;33.196;-97.114;2023-05-24T05:27:42;15.13;;;11.10;;
19621;SDS011;9958;33.196;-97.114;2023-05-24T05:30:11;19.05;;;13.48;;
19621;SDS011;9958;33.196;-97.114;2023-05-24T05:32:39;20.15;;;13.48;;
19621;SDS011;9958;33.196;-97.114;2023-05-24T05:35:08;19.77;;;12.95;;
19621;SDS011;9958;33.196;-97.114;2023-05-24T05:37:36;16.75;;;12.63;;
19621;SDS011;9958;33.196;-97.114;2023-05-24T05:40:05;18.33;;;13.23;;
19621;SDS011;9958;33.196;-97.114;2023-05-24T05:42:34;18.27;;;11.60;;
19621;SDS011;9958;33.196;-97.114;2023-05-24T05:45:04;19.88;;;13.02;;
19621;SDS011;9958;33.196;-97.114;2023-05-24T05:47:33;19.20;;;12.15;;
19621;SDS011;9958;33.196;-97.114;2023-05-24T05:50:02;17.50;;;12.25;;
19621;SDS011;9958;33.196;-97.114;2023-05-24T05:52:30;19.08;;;12.70;;
19621;SDS011;9958;33.196;-97.114;2023-05-24T05:54:59;19.85;;;12.30;;
19621;SDS011;9958;33.196;-97.114;2023-05-24T05:57:27;20.90;;;13.50;;
19621;SDS011;9958;33.196;-97.114;2023-05-24T05:59:55;16.17;;;12.18;;
19621;SDS011;9958;33.196;-97.114;2023-05-24T06:02:25;17.83;;;11.95;;
19621;SDS011;9958;33.196;-97.114;2023-05-24T06:04:53;18.60;;;12.45;;
19621;SDS011;9958;33.196;-97.114;2023-05-24T06:07:22;19.70;;;12.65;;
19621;SDS011;9958;33.196;-97.114;2023-05-24T06:09:50;18.05;;;11.32;;
19621;SDS011;9958;33.196;-97.114;2023-05-24T06:12:18;18.70;;;12.07;;
19621;SDS011;9958;33.196;-97.114;2023-05-24T06:14:47;22.10;;;13.20;;
19621;SDS011;9958;33.196;-97.114;2023-05-24T06:17:16;18.10;;;11.75;;
19621;SDS011;9958;33.196;-97.114;2023-05-24T06:19:50;19.30;;;12.23;;
19621;SDS011;9958;33.196;-97.114;2023-05-24T06:22:18;18.80;;;11.48;;
19621;SDS011;9958;33.196;-97.114;2023-05-24T06:24:47;19.67;;;12.10;;
19621;SDS011;9958;33.196;-97.114;2023-05-24T06:27:16;16.85;;;11.57;;
19621;SDS011;9958;33.196;-97.114;2023-05-24T06:29:45;19.88;;;12.05;;
19621;SDS011;9958;33.196;-97.114;2023-05-24T06:32:13;18.00;;;11.82;;
19621;SDS011;9958;33.196;-97.114;2023-05-24T06:34:41;17.65;;;12.30;;
19621;SDS011;9958;33.196;-97.114;2023-05-24T06:37:11;18.00;;;12.63;;
19621;SDS011;9958;33.196;-97.114;2023-05-24T06:39:40;16.38;;;12.50;;
19621;SDS011;9958;33.196;-97.114;2023-05-24T06:42:10;19.63;;;12.38;;
19621;SDS011;9958;33.196;-97.114;2023-05-24T06:44:38;18.30;;;11.77;;
19621;SDS011;9958;33.196;-97.114;2023-05-24T06:47:07;18.95;;;12.80;;
19621;SDS011;9958;33.196;-97.114;2023-05-24T06:49:35;16.52;;;12.07;;
19621;SDS011;9958;33.196;-97.114;2023-05-24T06:52:03;19.67;;;11.75;;
19621;SDS011;9958;33.196;-97.114;2023-05-24T06:54:35;18.35;;;12.80;;
19621;SDS011;9958;33.196;-97.114;2023-05-24T06:57:03;18.85;;;12.68;;
19621;SDS011;9958;33.196;-97.114;2023-05-24T06:59:31;16.40;;;12.45;;
19621;SDS011;9958;33.196;-97.114;2023-05-24T07:02:00;18.13;;;13.15;;
19621;SDS011;9958;33.196;-97.114;2023-05-24T07:04:28;17.88;;;11.75;;
19621;SDS011;9958;33.196;-97.114;2023-05-24T07:06:57;18.75;;;12.48;;
19621;SDS011;9958;33.196;-97.114;2023-05-24T07:09:25;19.08;;;12.77;;
19621;SDS011;9958;33.196;-97.114;2023-05-24T07:11:55;16.42;;;11.50;;
19621;SDS011;9958;33.196;-97.114;2023-05-24T07:14:23;20.25;;;11.82;;
19621;SDS011;9958;33.196;-97.114;2023-05-24T07:16:51;18.98;;;11.55;;
19621;SDS011;9958;33.196;-97.114;2023-05-24T07:19:22;16.83;;;12.02;;
19621;SDS011;9958;33.196;-97.114;2023-05-24T07:21:53;18.30;;;10.95;;
19621;SDS011;9958;33.196;-97.114;2023-05-24T07:24:22;19.20;;;11.98;;
19621;SDS011;9958;33.196;-97.114;2023-05-24T07:26:50;18.77;;;11.75;;
19621;SDS011;9958;33.196;-97.114;2023-05-24T07:29:22;18.25;;;11.75;;
19621;SDS011;9958;33.196;-97.114;2023-05-24T07:31:51;19.70;;;12.90;;
19621;SDS011;9958;33.196;-97.114;2023-05-24T07:34:22;18.67;;;12.98;;
19621;SDS011;9958;33.196;-97.114;2023-05-24T07:36:52;19.98;;;12.88;;
19621;SDS011;9958;33.196;-97.114;2023-05-24T07:39:20;17.90;;;12.70;;
19621;SDS011;9958;33.196;-97.114;2023-05-24T07:41:49;19.88;;;13.35;;
19621;SDS011;9958;33.196;-97.114;2023-05-24T07:44:18;17.77;;;12.32;;
19621;SDS011;9958;33.196;-97.114;2023-05-24T07:46:48;21.95;;;7.80;;
19621;SDS011;9958;33.196;-97.114;2023-05-24T07:49:16;13.60;;;5.47;;
19621;SDS011;9958;33.196;-97.114;2023-05-24T07:51:45;6.30;;;3.05;;
19621;SDS011;9958;33.196;-97.114;2023-05-24T07:54:13;4.55;;;2.20;;
19621;SDS011;9958;33.196;-97.114;2023-05-24T07:56:41;6.38;;;1.90;;
19621;SDS011;9958;33.196;-97.114;2023-05-24T07:59:10;2.35;;;1.80;;
19621;SDS011;9958;33.196;-97.114;2023-05-24T08:01:38;1.98;;;1.65;;
19621;SDS011;9958;33.196;-97.114;2023-05-24T08:04:08;1.80;;;1.00;;
19621;SDS011;9958;33.196;-97.114;2023-05-24T08:06:36;2.67;;;1.23;;
19621;SDS011;9958;33.196;-97.114;2023-05-24T08:09:05;1.05;;;1.05;;
19621;SDS011;9958;33.196;-97.114;2023-05-24T08:11:33;3.88;;;1.15;;
19621;SDS011;9958;33.196;-97.114;2023-05-24T08:14:01;3.22;;;1.20;;
19621;SDS011;9958;33.196;-97.114;2023-05-24T08:16:30;1.33;;;1.23;;
19621;SDS011;9958;33.196;-97.114;2023-05-24T08:18:58;2.95;;;1.40;;
19621;SDS011;9958;33.196;-97.114;2023-05-24T08:21:28;3.53;;;1.13;;
19621;SDS011;9958;33.196;-97.114;2023-05-24T08:23:58;1.58;;;1.23;;
19621;SDS011;9958;33.196;-97.114;2023-05-24T08:26:26;1.95;;;1.20;;
19621;SDS011;9958;33.196;-97.114;2023-05-24T08:28:54;2.40;;;1.45;;
19621;SDS011;9958;33.196;-97.114;2023-05-24T08:31:23;2.78;;;1.45;;
19621;SDS011;9958;33.196;-97.114;2023-05-24T08:33:51;1.10;;;1.10;;
19621;SDS011;9958;33.196;-97.114;2023-05-24T08:36:21;2.55;;;1.65;;
19621;SDS011;9958;33.196;-97.114;2023-05-24T08:38:51;2.00;;;1.40;;
19621;SDS011;9958;33.196;-97.114;2023-05-24T08:41:19;5.45;;;1.40;;
19621;SDS011;9958;33.196;-97.114;2023-05-24T08:43:48;1.95;;;1.45;;
19621;SDS011;9958;33.196;-97.114;2023-05-24T08:46:17;1.67;;;1.50;;
19621;SDS011;9958;33.196;-97.114;2023-05-24T08:48:46;3.20;;;1.95;;
19621;SDS011;9958;33.196;-97.114;2023-05-24T08:51:16;3.38;;;1.60;;
19621;SDS011;9958;33.196;-97.114;2023-05-24T08:53:44;4.53;;;1.80;;
19621;SDS011;9958;33.196;-97.114;2023-05-24T08:56:17;1.77;;;1.60;;
19621;SDS011;9958;33.196;-97.114;2023-05-24T08:58:46;1.73;;;1.60;;
19621;SDS011;9958;33.196;-97.114;2023-05-24T09:01:15;2.03;;;1.15;;
19621;SDS011;9958;33.196;-97.114;2023-05-24T09:03:44;2.30;;;1.40;;
19621;SDS011;9958;33.196;-97.114;2023-05-24T09:06:15;2.88;;;1.10;;
19621;SDS011;9958;33.196;-97.114;2023-05-24T09:08:44;2.95;;;1.52;;
19621;SDS011;9958;33.196;-97.114;2023-05-24T09:11:18;1.80;;;1.52;;
19621;SDS011;9958;33.196;-97.114;2023-05-24T09:13:48;2.17;;;1.40;;
19621;SDS011;9958;33.196;-97.114;2023-05-24T09:16:20;1.60;;;1.20;;
19621;SDS011;9958;33.196;-97.114;2023-05-24T09:18:48;1.35;;;1.23;;
19621;SDS011;9958;33.196;-97.114;2023-05-24T09:21:17;2.10;;;1.30;;
19621;SDS011;9958;33.196;-97.114;2023-05-24T09:23:45;2.75;;;1.40;;
19621;SDS011;9958;33.196;-97.114;2023-05-24T09:26:16;2.40;;;1.45;;
19621;SDS011;9958;33.196;-97.114;2023-05-24T09:28:46;2.13;;;1.45;;
19621;SDS011;9958;33.196;-97.114;2023-05-24T09:31:15;1.45;;;1.35;;
19621;SDS011;9958;33.196;-97.114;2023-05-24T09:33:47;3.28;;;1.45;;
19621;SDS011;9958;33.196;-97.114;2023-05-24T09:36:15;2.20;;;1.45;;
19621;SDS011;9958;33.196;-97.114;2023-05-24T09:38:44;3.70;;;1.75;;
19621;SDS011;9958;33.196;-97.114;2023-05-24T09:41:12;3.85;;;1.50;;
19621;SDS011;9958;33.196;-97.114;2023-05-24T09:43:48;2.03;;;1.30;;
19621;SDS011;9958;33.196;-97.114;2023-05-24T09:46:17;2.65;;;1.60;;
19621;SDS011;9958;33.196;-97.114;2023-05-24T09:48:54;5.47;;;1.60;;
19621;SDS011;9958;33.196;-97.114;2023-05-24T09:51:23;1.63;;;1.40;;
19621;SDS011;9958;33.196;-97.114;2023-05-24T09:53:55;1.88;;;1.60;;
19621;SDS011;9958;33.196;-97.114;2023-05-24T09:56:23;1.90;;;1.67;;
19621;SDS011;9958;33.196;-97.114;2023-05-24T09:58:54;1.63;;;1.48;;
19621;SDS011;9958;33.196;-97.114;2023-05-24T10:01:22;2.10;;;1.55;;
19621;SDS011;9958;33.196;-97.114;2023-05-24T10:03:52;1.35;;;1.25;;
19621;SDS011;9958;33.196;-97.114;2023-05-24T10:06:21;2.67;;;1.75;;
19621;SDS011;9958;33.196;-97.114;2023-05-24T10:08:50;2.72;;;1.70;;
19621;SDS011;9958;33.196;-97.114;2023-05-24T10:11:20;4.38;;;1.90;;
19621;SDS011;9958;33.196;-97.114;2023-05-24T10:13:48;2.10;;;1.60;;
19621;SDS011;9958;33.196;-97.114;2023-05-24T10:16:18;2.55;;;1.50;;
19621;SDS011;9958;33.196;-97.114;2023-05-24T10:18:47;2.67;;;1.77;;
19621;SDS011;9958;33.196;-97.114;2023-05-24T10:21:15;2.35;;;1.63;;
19621;SDS011;9958;33.196;-97.114;2023-05-24T10:23:45;2.35;;;1.60;;
19621;SDS011;9958;33.196;-97.114;2023-05-24T10:26:18;3.13;;;1.50;;
19621;SDS011;9958;33.196;-97.114;2023-05-24T10:28:50;2.40;;;1.90;;
19621;SDS011;9958;33.196;-97.114;2023-05-24T10:31:26;3.17;;;1.70;;
19621;SDS011;9958;33.196;-97.114;2023-05-24T10:33:59;1.92;;;1.42;;
19621;SDS011;9958;33.196;-97.114;2023-05-24T10:36:31;1.65;;;1.33;;
19621;SDS011;9958;33.196;-97.114;2023-05-24T10:39:01;1.70;;;1.60;;
19621;SDS011;9958;33.196;-97.114;2023-05-24T10:41:29;1.98;;;1.70;;
19621;SDS011;9958;33.196;-97.114;2023-05-24T10:44:09;2.20;;;1.50;;
19621;SDS011;9958;33.196;-97.114;2023-05-24T10:49:50;2.25;;;1.52;;
19621;SDS011;9958;33.196;-97.114;2023-05-24T10:52:22;2.35;;;1.65;;
19621;SDS011;9958;33.196;-97.114;2023-05-24T10:55:00;2.20;;;1.63;;
19621;SDS011;9958;33.196;-97.114;2023-05-24T10:57:32;3.22;;;1.90;;
19621;SDS011;9958;33.196;-97.114;2023-05-24T11:02:58;1.98;;;1.60;;
19621;SDS011;9958;33.196;-97.114;2023-05-24T11:05:33;1.98;;;1.80;;
19621;SDS011;9958;33.196;-97.114;2023-05-24T11:08:02;3.90;;;1.77;;
19621;SDS011;9958;33.196;-97.114;2023-05-24T11:10:34;4.80;;;1.60;;
19621;SDS011;9958;33.196;-97.114;2023-05-24T11:13:06;2.08;;;1.70;;
19621;SDS011;9958;33.196;-97.114;2023-05-24T11:15:35;1.60;;;1.50;;
19621;SDS011;9958;33.196;-97.114;2023-05-24T11:18:13;1.98;;;1.77;;
19621;SDS011;9958;33.196;-97.114;2023-05-24T11:20:43;2.25;;;1.98;;
19621;SDS011;9958;33.196;-97.114;2023-05-24T11:23:14;2.35;;;1.95;;
19621;SDS011;9958;33.196;-97.114;2023-05-24T11:25:43;1.83;;;1.70;;
19621;SDS011;9958;33.196;-97.114;2023-05-24T11:28:13;3.90;;;2.08;;
19621;SDS011;9958;33.196;-97.114;2023-05-24T11:30:42;2.33;;;1.90;;
19621;SDS011;9958;33.196;-97.114;2023-05-24T11:33:14;2.53;;;1.70;;
19621;SDS011;9958;33.196;-97.114;2023-05-24T11:35:46;3.83;;;2.08;;
19621;SDS011;9958;33.196;-97.114;2023-05-24T11:38:15;3.88;;;1.63;;
19621;SDS011;9958;33.196;-97.114;2023-05-24T11:40:45;1.85;;;1.75;;
19621;SDS011;9958;33.196;-97.114;2023-05-24T11:43:15;2.58;;;1.58;;
19621;SDS011;9958;33.196;-97.114;2023-05-24T11:45:45;2.05;;;1.55;;
19621;SDS011;9958;33.196;-97.114;2023-05-24T11:48:15;1.65;;;1.50;;
19621;SDS011;9958;33.196;-97.114;2023-05-24T11:50:46;2.60;;;2.00;;
19621;SDS011;9958;33.196;-97.114;2023-05-24T11:53:15;2.10;;;1.67;;
19621;SDS011;9958;33.196;-97.114;2023-05-24T11:55:45;1.58;;;1.42;;
19621;SDS011;9958;33.196;-97.114;2023-05-24T11:58:16;3.58;;;1.40;;
19621;SDS011;9958;33.196;-97.114;2023-05-24T12:00:49;1.40;;;1.30;;
19621;SDS011;9958;33.196;-97.114;2023-05-24T12:03:17;3.25;;;2.05;;
19621;SDS011;9958;33.196;-97.114;2023-05-24T12:05:47;3.50;;;1.60;;
19621;SDS011;9958;33.196;-97.114;2023-05-24T12:08:17;1.50;;;1.40;;
19621;SDS011;9958;33.196;-97.114;2023-05-24T12:10:47;3.95;;;1.58;;
19621;SDS011;9958;33.196;-97.114;2023-05-24T12:13:19;1.33;;;1.20;;
19621;SDS011;9958;33.196;-97.114;2023-05-24T12:15:49;2.55;;;1.48;;
19621;SDS011;9958;33.196;-97.114;2023-05-24T12:18:18;2.03;;;1.65;;
19621;SDS011;9958;33.196;-97.114;2023-05-24T12:20:49;1.50;;;1.40;;
19621;SDS011;9958;33.196;-97.114;2023-05-24T12:23:18;1.88;;;1.52;;
19621;SDS011;9958;33.196;-97.114;2023-05-24T12:25:49;1.55;;;1.42;;
19621;SDS011;9958;33.196;-97.114;2023-05-24T12:28:18;1.75;;;1.15;;
19621;SDS011;9958;33.196;-97.114;2023-05-24T12:30:49;1.48;;;1.30;;
19621;SDS011;9958;33.196;-97.114;2023-05-24T12:33:17;1.77;;;1.50;;
19621;SDS011;9958;33.196;-97.114;2023-05-24T12:35:47;1.40;;;1.30;;
19621;SDS011;9958;33.196;-97.114;2023-05-24T12:38:18;1.73;;;1.42;;
19621;SDS011;9958;33.196;-97.114;2023-05-24T12:40:49;2.03;;;1.38;;
19621;SDS011;9958;33.196;-97.114;2023-05-24T12:43:18;3.42;;;1.50;;
19621;SDS011;9958;33.196;-97.114;2023-05-24T12:45:47;1.52;;;1.42;;
19621;SDS011;9958;33.196;-97.114;2023-05-24T12:48:15;3.38;;;1.60;;
19621;SDS011;9958;33.196;-97.114;2023-05-24T12:50:44;1.25;;;1.15;;
19621;SDS011;9958;33.196;-97.114;2023-05-24T12:53:14;1.75;;;1.25;;
19621;SDS011;9958;33.196;-97.114;2023-05-24T12:55:44;4.10;;;2.13;;
19621;SDS011;9958;33.196;-97.114;2023-05-24T12:58:12;1.92;;;1.67;;
19621;SDS011;9958;33.196;-97.114;2023-05-24T13:00:41;3.50;;;1.48;;
19621;SDS011;9958;33.196;-97.114;2023-05-24T13:03:14;1.73;;;1.55;;
19621;SDS011;9958;33.196;-97.114;2023-05-24T13:05:42;1.70;;;1.58;;
19621;SDS011;9958;33.196;-97.114;2023-05-24T13:08:11;2.25;;;1.33;;
19621;SDS011;9958;33.196;-97.114;2023-05-24T13:10:41;2.78;;;1.35;;
19621;SDS011;9958;33.196;-97.114;2023-05-24T13:13:09;1.70;;;1.40;;
19621;SDS011;9958;33.196;-97.114;2023-05-24T13:15:38;1.38;;;1.20;;
19621;SDS011;9958;33.196;-97.114;2023-05-24T13:18:08;2.30;;;1.48;;
19621;SDS011;9958;33.196;-97.114;2023-05-24T13:20:37;1.40;;;1.30;;
19621;SDS011;9958;33.196;-97.114;2023-05-24T13:23:05;1.70;;;1.25;;
19621;SDS011;9958;33.196;-97.114;2023-05-24T13:25:35;4.65;;;1.60;;
19621;SDS011;9958;33.196;-97.114;2023-05-24T13:28:04;1.20;;;1.10;;
19621;SDS011;9958;33.196;-97.114;2023-05-24T13:30:32;2.95;;;1.33;;
19621;SDS011;9958;33.196;-97.114;2023-05-24T13:33:00;2.70;;;1.38;;
19621;SDS011;9958;33.196;-97.114;2023-05-24T13:35:29;1.17;;;1.08;;
19621;SDS011;9958;33.196;-97.114;2023-05-24T13:37:57;2.40;;;1.42;;
19621;SDS011;9958;33.196;-97.114;2023-05-24T13:40:25;3.53;;;1.70;;
19621;SDS011;9958;33.196;-97.114;2023-05-24T13:42:55;3.08;;;1.58;;
19621;SDS011;9958;33.196;-97.114;2023-05-24T13:45:23;1.83;;;1.20;;
19621;SDS011;9958;33.196;-97.114;2023-05-24T13:47:54;8.10;;;1.70;;
19621;SDS011;9958;33.196;-97.114;2023-05-24T13:50:28;1.67;;;1.40;;
19621;SDS011;9958;33.196;-97.114;2023-05-24T13:52:56;3.35;;;1.42;;
19621;SDS011;9958;33.196;-97.114;2023-05-24T13:55:26;1.95;;;1.40;;
19621;SDS011;9958;33.196;-97.114;2023-05-24T13:57:57;1.98;;;1.60;;
19621;SDS011;9958;33.196;-97.114;2023-05-24T14:00:26;1.35;;;1.25;;
19621;SDS011;9958;33.196;-97.114;2023-05-24T14:02:54;2.05;;;1.60;;
19621;SDS011;9958;33.196;-97.114;2023-05-24T14:05:22;3.15;;;1.67;;
19621;SDS011;9958;33.196;-97.114;2023-05-24T14:07:51;2.13;;;1.60;;
19621;SDS011;9958;33.196;-97.114;2023-05-24T14:10:19;2.70;;;1.20;;
19621;SDS011;9958;33.196;-97.114;2023-05-24T14:12:48;2.05;;;1.85;;
19621;SDS011;9958;33.196;-97.114;2023-05-24T14:15:18;2.95;;;1.60;;
19621;SDS011;9958;33.196;-97.114;2023-05-24T14:17:46;2.00;;;1.80;;
19621;SDS011;9958;33.196;-97.114;2023-05-24T14:20:14;5.15;;;2.20;;
19621;SDS011;9958;33.196;-97.114;2023-05-24T14:22:42;2.30;;;1.90;;
19621;SDS011;9958;33.196;-97.114;2023-05-24T14:25:11;3.05;;;2.50;;
19621;SDS011;9958;33.196;-97.114;2023-05-24T14:27:40;3.33;;;2.00;;
19621;SDS011;9958;33.196;-97.114;2023-05-24T14:30:10;4.07;;;2.38;;
19621;SDS011;9958;33.196;-97.114;2023-05-24T14:32:40;5.35;;;2.92;;
19621;SDS011;9958;33.196;-97.114;2023-05-24T14:35:08;3.70;;;2.60;;
19621;SDS011;9958;33.196;-97.114;2023-05-24T14:37:37;4.65;;;2.67;;
19621;SDS011;9958;33.196;-97.114;2023-05-24T14:40:05;4.53;;;3.17;;